sensor_id;sensor_type;location;lat;lon;timestamp;P1;durP1;ratioP1;P2;durP2;ratioP2
21458;SDS011;10891;49.350;19.386;2022-12-16T00:00:20;107.05;;;46.13;;
21458;SDS011;10891;49.350;19.386;2022-12-16T00:02:48;83.95;;;37.55;;
21458;SDS011;10891;49.350;19.386;2022-12-16T00:05:16;68.93;;;31.02;;
21458;SDS011;10891;49.350;19.386;2022-12-16T00:07:44;97.07;;;39.92;;
21458;SDS011;10891;49.350;19.386;2022-12-16T00:10:11;80.53;;;33.38;;
21458;SDS011;10891;49.350;19.386;2022-12-16T00:12:38;88.35;;;35.90;;
21458;SDS011;10891;49.350;19.386;2022-12-16T00:15:05;90.28;;;38.58;;
21458;SDS011;10891;49.350;19.386;2022-12-16T00:17:32;105.53;;;42.85;;
21458;SDS011;10891;49.350;19.386;2022-12-16T00:20:00;87.65;;;36.05;;
21458;SDS011;10891;49.350;19.386;2022-12-16T00:22:29;88.97;;;37.67;;
21458;SDS011;10891;49.350;19.386;2022-12-16T00:24:56;77.70;;;33.90;;
21458;SDS011;10891;49.350;19.386;2022-12-16T00:27:23;109.65;;;47.08;;
21458;SDS011;10891;49.350;19.386;2022-12-16T00:29:49;112.00;;;48.20;;
21458;SDS011;10891;49.350;19.386;2022-12-16T00:32:16;95.22;;;37.28;;
21458;SDS011;10891;49.350;19.386;2022-12-16T00:34:43;103.93;;;44.85;;
21458;SDS011;10891;49.350;19.386;2022-12-16T00:37:10;122.07;;;49.35;;
21458;SDS011;10891;49.350;19.386;2022-12-16T00:39:42;108.55;;;43.38;;
21458;SDS011;10891;49.350;19.386;2022-12-16T00:42:09;126.53;;;51.40;;
21458;SDS011;10891;49.350;19.386;2022-12-16T00:44:36;113.75;;;46.63;;
21458;SDS011;10891;49.350;19.386;2022-12-16T00:47:03;111.85;;;45.38;;
21458;SDS011;10891;49.350;19.386;2022-12-16T00:49:30;85.18;;;36.78;;
21458;SDS011;10891;49.350;19.386;2022-12-16T00:51:56;106.13;;;46.63;;
21458;SDS011;10891;49.350;19.386;2022-12-16T00:54:23;97.82;;;42.58;;
21458;SDS011;10891;49.350;19.386;2022-12-16T00:56:51;96.63;;;42.67;;
21458;SDS011;10891;49.350;19.386;2022-12-16T00:59:18;81.78;;;36.75;;
21458;SDS011;10891;49.350;19.386;2022-12-16T01:01:45;73.95;;;31.08;;
21458;SDS011;10891;49.350;19.386;2022-12-16T01:04:12;78.90;;;35.03;;
21458;SDS011;10891;49.350;19.386;2022-12-16T01:06:39;77.03;;;33.28;;
21458;SDS011;10891;49.350;19.386;2022-12-16T01:09:05;79.10;;;34.00;;
21458;SDS011;10891;49.350;19.386;2022-12-16T01:11:32;76.72;;;33.10;;
21458;SDS011;10891;49.350;19.386;2022-12-16T01:14:00;74.28;;;30.95;;
21458;SDS011;10891;49.350;19.386;2022-12-16T01:16:27;78.15;;;32.63;;
21458;SDS011;10891;49.350;19.386;2022-12-16T01:18:54;78.15;;;33.08;;
21458;SDS011;10891;49.350;19.386;2022-12-16T01:21:21;69.88;;;30.67;;
21458;SDS011;10891;49.350;19.386;2022-12-16T01:23:48;73.45;;;35.17;;
21458;SDS011;10891;49.350;19.386;2022-12-16T01:26:15;67.75;;;30.98;;
21458;SDS011;10891;49.350;19.386;2022-12-16T01:28:43;76.43;;;30.80;;
21458;SDS011;10891;49.350;19.386;2022-12-16T01:31:11;75.13;;;32.65;;
21458;SDS011;10891;49.350;19.386;2022-12-16T01:33:40;63.72;;;29.98;;
21458;SDS011;10891;49.350;19.386;2022-12-16T01:36:07;80.90;;;39.00;;
21458;SDS011;10891;49.350;19.386;2022-12-16T01:38:34;68.32;;;30.52;;
21458;SDS011;10891;49.350;19.386;2022-12-16T01:41:02;63.88;;;29.80;;
21458;SDS011;10891;49.350;19.386;2022-12-16T01:43:30;67.03;;;29.77;;
21458;SDS011;10891;49.350;19.386;2022-12-16T01:46:00;69.30;;;29.95;;
21458;SDS011;10891;49.350;19.386;2022-12-16T01:48:36;63.80;;;29.55;;
21458;SDS011;10891;49.350;19.386;2022-12-16T01:51:07;66.28;;;30.70;;
21458;SDS011;10891;49.350;19.386;2022-12-16T01:53:37;64.78;;;28.90;;
21458;SDS011;10891;49.350;19.386;2022-12-16T01:56:07;66.75;;;28.73;;
21458;SDS011;10891;49.350;19.386;2022-12-16T01:58:35;63.13;;;27.60;;
21458;SDS011;10891;49.350;19.386;2022-12-16T02:01:05;77.97;;;34.78;;
21458;SDS011;10891;49.350;19.386;2022-12-16T02:03:33;64.95;;;31.83;;
21458;SDS011;10891;49.350;19.386;2022-12-16T02:06:03;64.03;;;29.27;;
21458;SDS011;10891;49.350;19.386;2022-12-16T02:08:31;67.03;;;29.95;;
21458;SDS011;10891;49.350;19.386;2022-12-16T02:11:02;66.20;;;28.65;;
21458;SDS011;10891;49.350;19.386;2022-12-16T02:13:40;61.42;;;28.85;;
21458;SDS011;10891;49.350;19.386;2022-12-16T02:16:17;59.45;;;26.40;;
21458;SDS011;10891;49.350;19.386;2022-12-16T02:18:51;58.97;;;27.77;;
21458;SDS011;10891;49.350;19.386;2022-12-16T02:21:37;66.90;;;30.25;;
21458;SDS011;10891;49.350;19.386;2022-12-16T02:30:26;59.60;;;26.40;;
21458;SDS011;10891;49.350;19.386;2022-12-16T02:33:32;67.82;;;29.63;;
21458;SDS011;10891;49.350;19.386;2022-12-16T02:36:10;64.03;;;27.08;;
21458;SDS011;10891;49.350;19.386;2022-12-16T02:38:44;61.88;;;29.33;;
21458;SDS011;10891;49.350;19.386;2022-12-16T02:41:20;62.38;;;27.50;;
21458;SDS011;10891;49.350;19.386;2022-12-16T02:43:54;55.83;;;27.15;;
21458;SDS011;10891;49.350;19.386;2022-12-16T02:46:25;63.15;;;27.45;;
21458;SDS011;10891;49.350;19.386;2022-12-16T02:48:54;66.32;;;30.00;;
21458;SDS011;10891;49.350;19.386;2022-12-16T02:51:22;63.72;;;27.90;;
21458;SDS011;10891;49.350;19.386;2022-12-16T02:53:51;61.03;;;27.13;;
21458;SDS011;10891;49.350;19.386;2022-12-16T02:56:26;63.90;;;29.42;;
21458;SDS011;10891;49.350;19.386;2022-12-16T02:59:02;54.40;;;26.48;;
21458;SDS011;10891;49.350;19.386;2022-12-16T03:01:39;61.28;;;28.00;;
21458;SDS011;10891;49.350;19.386;2022-12-16T03:04:13;58.65;;;27.13;;
21458;SDS011;10891;49.350;19.386;2022-12-16T03:06:46;64.55;;;26.95;;
21458;SDS011;10891;49.350;19.386;2022-12-16T03:09:16;60.83;;;29.33;;
21458;SDS011;10891;49.350;19.386;2022-12-16T03:11:47;62.58;;;28.02;;
21458;SDS011;10891;49.350;19.386;2022-12-16T03:14:17;55.83;;;27.55;;
21458;SDS011;10891;49.350;19.386;2022-12-16T03:16:48;54.42;;;25.48;;
21458;SDS011;10891;49.350;19.386;2022-12-16T03:19:16;55.85;;;26.95;;
21458;SDS011;10891;49.350;19.386;2022-12-16T03:21:47;49.72;;;24.88;;
21458;SDS011;10891;49.350;19.386;2022-12-16T03:24:19;59.70;;;26.90;;
21458;SDS011;10891;49.350;19.386;2022-12-16T03:26:48;53.47;;;24.95;;
21458;SDS011;10891;49.350;19.386;2022-12-16T03:29:23;52.75;;;25.38;;
21458;SDS011;10891;49.350;19.386;2022-12-16T03:31:58;51.95;;;24.38;;
21458;SDS011;10891;49.350;19.386;2022-12-16T03:34:30;48.25;;;23.92;;
21458;SDS011;10891;49.350;19.386;2022-12-16T03:37:01;53.63;;;24.45;;
21458;SDS011;10891;49.350;19.386;2022-12-16T03:39:31;57.72;;;25.55;;
21458;SDS011;10891;49.350;19.386;2022-12-16T03:42:00;57.53;;;26.90;;
21458;SDS011;10891;49.350;19.386;2022-12-16T03:44:28;59.10;;;25.25;;
21458;SDS011;10891;49.350;19.386;2022-12-16T03:46:58;54.00;;;25.65;;
21458;SDS011;10891;49.350;19.386;2022-12-16T03:49:24;57.17;;;25.25;;
21458;SDS011;10891;49.350;19.386;2022-12-16T03:51:51;56.35;;;25.95;;
21458;SDS011;10891;49.350;19.386;2022-12-16T03:54:20;58.72;;;25.10;;
21458;SDS011;10891;49.350;19.386;2022-12-16T03:56:47;51.60;;;23.52;;
21458;SDS011;10891;49.350;19.386;2022-12-16T03:59:14;52.47;;;23.80;;
21458;SDS011;10891;49.350;19.386;2022-12-16T04:01:41;51.53;;;23.95;;
21458;SDS011;10891;49.350;19.386;2022-12-16T04:04:09;49.65;;;22.92;;
21458;SDS011;10891;49.350;19.386;2022-12-16T04:06:37;43.78;;;20.40;;
21458;SDS011;10891;49.350;19.386;2022-12-16T04:09:03;67.88;;;26.75;;
21458;SDS011;10891;49.350;19.386;2022-12-16T04:11:30;81.88;;;27.92;;
21458;SDS011;10891;49.350;19.386;2022-12-16T04:14:14;51.97;;;23.77;;
21458;SDS011;10891;49.350;19.386;2022-12-16T04:16:59;44.53;;;20.95;;
21458;SDS011;10891;49.350;19.386;2022-12-16T04:19:44;55.03;;;24.02;;
21458;SDS011;10891;49.350;19.386;2022-12-16T04:22:30;48.25;;;22.25;;
21458;SDS011;10891;49.350;19.386;2022-12-16T04:25:18;45.17;;;21.17;;
21458;SDS011;10891;49.350;19.386;2022-12-16T04:27:47;55.40;;;25.15;;
21458;SDS011;10891;49.350;19.386;2022-12-16T04:30:14;98.38;;;40.15;;
21458;SDS011;10891;49.350;19.386;2022-12-16T04:32:44;92.18;;;38.05;;
21458;SDS011;10891;49.350;19.386;2022-12-16T04:35:30;56.17;;;25.75;;
21458;SDS011;10891;49.350;19.386;2022-12-16T04:38:15;69.22;;;31.10;;
21458;SDS011;10891;49.350;19.386;2022-12-16T04:40:59;88.22;;;40.00;;
21458;SDS011;10891;49.350;19.386;2022-12-16T04:43:43;67.40;;;32.17;;
21458;SDS011;10891;49.350;19.386;2022-12-16T04:46:27;52.35;;;26.00;;
21458;SDS011;10891;49.350;19.386;2022-12-16T04:49:12;53.80;;;27.35;;
21458;SDS011;10891;49.350;19.386;2022-12-16T04:51:57;102.85;;;43.50;;
21458;SDS011;10891;49.350;19.386;2022-12-16T04:54:42;97.05;;;39.70;;
21458;SDS011;10891;49.350;19.386;2022-12-16T04:57:26;59.97;;;25.98;;
21458;SDS011;10891;49.350;19.386;2022-12-16T05:00:11;63.90;;;28.50;;
21458;SDS011;10891;49.350;19.386;2022-12-16T05:02:55;52.17;;;23.08;;
21458;SDS011;10891;49.350;19.386;2022-12-16T05:05:40;53.72;;;25.45;;
21458;SDS011;10891;49.350;19.386;2022-12-16T05:08:26;54.47;;;24.38;;
21458;SDS011;10891;49.350;19.386;2022-12-16T05:11:11;69.75;;;30.92;;
21458;SDS011;10891;49.350;19.386;2022-12-16T05:13:55;105.15;;;44.50;;
21458;SDS011;10891;49.350;19.386;2022-12-16T05:16:39;94.25;;;36.55;;
21458;SDS011;10891;49.350;19.386;2022-12-16T05:19:24;81.80;;;35.63;;
21458;SDS011;10891;49.350;19.386;2022-12-16T05:22:08;78.63;;;34.80;;
21458;SDS011;10891;49.350;19.386;2022-12-16T05:24:53;72.63;;;33.83;;
21458;SDS011;10891;49.350;19.386;2022-12-16T05:27:38;65.90;;;32.17;;
21458;SDS011;10891;49.350;19.386;2022-12-16T05:30:22;66.03;;;31.98;;
21458;SDS011;10891;49.350;19.386;2022-12-16T05:33:07;65.65;;;31.10;;
21458;SDS011;10891;49.350;19.386;2022-12-16T05:35:51;81.15;;;34.97;;
21458;SDS011;10891;49.350;19.386;2022-12-16T05:38:36;81.72;;;36.78;;
21458;SDS011;10891;49.350;19.386;2022-12-16T05:41:22;88.72;;;37.60;;
21458;SDS011;10891;49.350;19.386;2022-12-16T05:44:06;77.35;;;34.95;;
21458;SDS011;10891;49.350;19.386;2022-12-16T05:46:51;74.85;;;36.70;;
21458;SDS011;10891;49.350;19.386;2022-12-16T05:49:35;78.05;;;36.22;;
21458;SDS011;10891;49.350;19.386;2022-12-16T05:52:20;102.80;;;46.47;;
21458;SDS011;10891;49.350;19.386;2022-12-16T05:55:04;136.27;;;56.50;;
21458;SDS011;10891;49.350;19.386;2022-12-16T05:57:52;114.20;;;48.88;;
21458;SDS011;10891;49.350;19.386;2022-12-16T06:00:36;115.47;;;49.97;;
21458;SDS011;10891;49.350;19.386;2022-12-16T06:03:21;128.52;;;52.17;;
21458;SDS011;10891;49.350;19.386;2022-12-16T06:06:06;115.18;;;48.65;;
21458;SDS011;10891;49.350;19.386;2022-12-16T06:08:51;107.35;;;47.55;;
21458;SDS011;10891;49.350;19.386;2022-12-16T06:11:35;114.72;;;51.10;;
21458;SDS011;10891;49.350;19.386;2022-12-16T06:14:22;129.45;;;56.38;;
21458;SDS011;10891;49.350;19.386;2022-12-16T06:17:06;191.55;;;72.07;;
21458;SDS011;10891;49.350;19.386;2022-12-16T06:19:51;233.95;;;88.22;;
21458;SDS011;10891;49.350;19.386;2022-12-16T06:22:35;108.78;;;46.63;;
21458;SDS011;10891;49.350;19.386;2022-12-16T06:25:19;99.97;;;46.55;;
21458;SDS011;10891;49.350;19.386;2022-12-16T06:28:04;113.57;;;51.42;;
21458;SDS011;10891;49.350;19.386;2022-12-16T06:30:49;132.90;;;55.67;;
21458;SDS011;10891;49.350;19.386;2022-12-16T06:33:34;115.75;;;50.72;;
21458;SDS011;10891;49.350;19.386;2022-12-16T06:36:18;80.50;;;37.30;;
21458;SDS011;10891;49.350;19.386;2022-12-16T06:39:03;82.13;;;36.17;;
21458;SDS011;10891;49.350;19.386;2022-12-16T06:41:47;86.93;;;36.85;;
21458;SDS011;10891;49.350;19.386;2022-12-16T06:44:32;123.32;;;53.08;;
21458;SDS011;10891;49.350;19.386;2022-12-16T06:47:17;131.48;;;55.60;;
21458;SDS011;10891;49.350;19.386;2022-12-16T06:50:02;131.90;;;59.03;;
21458;SDS011;10891;49.350;19.386;2022-12-16T06:52:46;132.23;;;57.00;;
21458;SDS011;10891;49.350;19.386;2022-12-16T06:55:31;108.63;;;47.72;;
21458;SDS011;10891;49.350;19.386;2022-12-16T06:58:15;92.18;;;41.42;;
21458;SDS011;10891;49.350;19.386;2022-12-16T07:00:59;84.22;;;38.35;;
21458;SDS011;10891;49.350;19.386;2022-12-16T07:03:45;79.68;;;34.88;;
21458;SDS011;10891;49.350;19.386;2022-12-16T07:06:30;79.35;;;36.42;;
21458;SDS011;10891;49.350;19.386;2022-12-16T07:09:14;70.63;;;32.08;;
21458;SDS011;10891;49.350;19.386;2022-12-16T07:11:58;65.22;;;30.60;;
21458;SDS011;10891;49.350;19.386;2022-12-16T07:14:43;64.70;;;29.83;;
21458;SDS011;10891;49.350;19.386;2022-12-16T07:17:27;69.80;;;33.72;;
21458;SDS011;10891;49.350;19.386;2022-12-16T07:20:13;79.88;;;36.90;;
21458;SDS011;10891;49.350;19.386;2022-12-16T07:22:57;78.68;;;34.17;;
21458;SDS011;10891;49.350;19.386;2022-12-16T07:25:41;136.18;;;65.60;;
21458;SDS011;10891;49.350;19.386;2022-12-16T07:28:25;81.88;;;37.08;;
21458;SDS011;10891;49.350;19.386;2022-12-16T07:31:10;69.07;;;32.38;;
21458;SDS011;10891;49.350;19.386;2022-12-16T07:33:54;83.22;;;32.50;;
21458;SDS011;10891;49.350;19.386;2022-12-16T07:36:40;67.43;;;29.83;;
21458;SDS011;10891;49.350;19.386;2022-12-16T07:39:24;58.55;;;26.33;;
21458;SDS011;10891;49.350;19.386;2022-12-16T07:42:08;90.00;;;37.95;;
21458;SDS011;10891;49.350;19.386;2022-12-16T07:44:53;63.22;;;30.13;;
21458;SDS011;10891;49.350;19.386;2022-12-16T07:47:37;67.43;;;31.98;;
21458;SDS011;10891;49.350;19.386;2022-12-16T07:50:30;74.97;;;36.20;;
21458;SDS011;10891;49.350;19.386;2022-12-16T07:53:15;69.25;;;32.35;;
21458;SDS011;10891;49.350;19.386;2022-12-16T07:56:11;72.75;;;35.47;;
21458;SDS011;10891;49.350;19.386;2022-12-16T07:58:56;128.15;;;52.15;;
21458;SDS011;10891;49.350;19.386;2022-12-16T08:01:41;91.95;;;40.28;;
21458;SDS011;10891;49.350;19.386;2022-12-16T08:04:27;99.70;;;41.95;;
21458;SDS011;10891;49.350;19.386;2022-12-16T08:07:12;79.70;;;37.33;;
21458;SDS011;10891;49.350;19.386;2022-12-16T08:09:58;73.35;;;32.65;;
21458;SDS011;10891;49.350;19.386;2022-12-16T08:12:58;76.63;;;35.25;;
21458;SDS011;10891;49.350;19.386;2022-12-16T08:15:43;70.20;;;32.58;;
21458;SDS011;10891;49.350;19.386;2022-12-16T08:18:29;75.63;;;33.63;;
21458;SDS011;10891;49.350;19.386;2022-12-16T08:21:14;69.95;;;33.70;;
21458;SDS011;10891;49.350;19.386;2022-12-16T08:23:58;65.30;;;32.25;;
21458;SDS011;10891;49.350;19.386;2022-12-16T08:26:44;78.75;;;37.13;;
21458;SDS011;10891;49.350;19.386;2022-12-16T08:29:28;87.30;;;41.28;;
21458;SDS011;10891;49.350;19.386;2022-12-16T08:32:13;83.68;;;41.10;;
21458;SDS011;10891;49.350;19.386;2022-12-16T08:34:58;174.05;;;79.57;;
21458;SDS011;10891;49.350;19.386;2022-12-16T08:37:42;410.00;;;181.57;;
21458;SDS011;10891;49.350;19.386;2022-12-16T08:40:27;90.72;;;44.22;;
21458;SDS011;10891;49.350;19.386;2022-12-16T08:43:13;91.22;;;47.10;;
21458;SDS011;10891;49.350;19.386;2022-12-16T08:45:57;101.72;;;49.10;;
21458;SDS011;10891;49.350;19.386;2022-12-16T08:48:42;90.18;;;43.88;;
21458;SDS011;10891;49.350;19.386;2022-12-16T08:51:26;106.18;;;48.30;;
21458;SDS011;10891;49.350;19.386;2022-12-16T08:54:11;102.72;;;45.83;;
21458;SDS011;10891;49.350;19.386;2022-12-16T08:56:56;102.07;;;47.03;;
21458;SDS011;10891;49.350;19.386;2022-12-16T08:59:42;122.30;;;56.35;;
21458;SDS011;10891;49.350;19.386;2022-12-16T09:02:26;110.80;;;49.50;;
21458;SDS011;10891;49.350;19.386;2022-12-16T09:05:11;90.82;;;43.33;;
21458;SDS011;10891;49.350;19.386;2022-12-16T09:07:57;60.05;;;29.10;;
21458;SDS011;10891;49.350;19.386;2022-12-16T09:10:42;63.72;;;29.63;;
21458;SDS011;10891;49.350;19.386;2022-12-16T09:13:27;66.50;;;31.55;;
21458;SDS011;10891;49.350;19.386;2022-12-16T09:16:12;53.00;;;26.13;;
21458;SDS011;10891;49.350;19.386;2022-12-16T09:18:57;69.20;;;32.25;;
21458;SDS011;10891;49.350;19.386;2022-12-16T09:21:41;72.90;;;32.38;;
21458;SDS011;10891;49.350;19.386;2022-12-16T09:24:25;97.85;;;35.40;;
21458;SDS011;10891;49.350;19.386;2022-12-16T09:27:09;69.07;;;32.78;;
21458;SDS011;10891;49.350;19.386;2022-12-16T09:29:53;143.20;;;55.28;;
21458;SDS011;10891;49.350;19.386;2022-12-16T09:32:41;147.82;;;64.35;;
21458;SDS011;10891;49.350;19.386;2022-12-16T09:35:25;114.15;;;48.05;;
21458;SDS011;10891;49.350;19.386;2022-12-16T09:38:09;59.22;;;30.00;;
21458;SDS011;10891;49.350;19.386;2022-12-16T09:40:54;46.78;;;25.30;;
21458;SDS011;10891;49.350;19.386;2022-12-16T09:43:43;54.45;;;26.75;;
21458;SDS011;10891;49.350;19.386;2022-12-16T09:46:37;53.47;;;25.55;;
21458;SDS011;10891;49.350;19.386;2022-12-16T09:49:32;79.00;;;36.67;;
21458;SDS011;10891;49.350;19.386;2022-12-16T09:52:26;86.32;;;37.70;;
21458;SDS011;10891;49.350;19.386;2022-12-16T09:55:16;62.40;;;28.48;;
21458;SDS011;10891;49.350;19.386;2022-12-16T09:58:07;54.92;;;28.63;;
21458;SDS011;10891;49.350;19.386;2022-12-16T10:00:54;79.97;;;38.40;;
21458;SDS011;10891;49.350;19.386;2022-12-16T10:03:38;100.45;;;46.50;;
21458;SDS011;10891;49.350;19.386;2022-12-16T10:06:29;71.15;;;35.08;;
21458;SDS011;10891;49.350;19.386;2022-12-16T10:09:23;58.17;;;28.40;;
21458;SDS011;10891;49.350;19.386;2022-12-16T10:12:15;138.15;;;58.10;;
21458;SDS011;10891;49.350;19.386;2022-12-16T10:15:10;118.60;;;55.75;;
21458;SDS011;10891;49.350;19.386;2022-12-16T10:18:04;102.65;;;46.85;;
21458;SDS011;10891;49.350;19.386;2022-12-16T10:21:00;128.70;;;54.75;;
21458;SDS011;10891;49.350;19.386;2022-12-16T10:23:48;123.55;;;70.35;;
21458;SDS011;10891;49.350;19.386;2022-12-16T10:26:43;83.80;;;44.50;;
21458;SDS011;10891;49.350;19.386;2022-12-16T10:29:36;57.70;;;32.28;;
21458;SDS011;10891;49.350;19.386;2022-12-16T10:32:26;53.83;;;28.15;;
21458;SDS011;10891;49.350;19.386;2022-12-16T10:35:16;56.83;;;29.52;;
21458;SDS011;10891;49.350;19.386;2022-12-16T10:38:05;70.88;;;33.17;;
21458;SDS011;10891;49.350;19.386;2022-12-16T10:40:54;95.78;;;42.13;;
21458;SDS011;10891;49.350;19.386;2022-12-16T10:43:43;104.78;;;50.38;;
21458;SDS011;10891;49.350;19.386;2022-12-16T10:46:32;77.20;;;37.60;;
21458;SDS011;10891;49.350;19.386;2022-12-16T10:49:17;65.65;;;34.08;;
21458;SDS011;10891;49.350;19.386;2022-12-16T10:52:02;71.90;;;37.92;;
21458;SDS011;10891;49.350;19.386;2022-12-16T10:54:48;124.57;;;48.50;;
21458;SDS011;10891;49.350;19.386;2022-12-16T10:57:44;101.32;;;50.42;;
21458;SDS011;10891;49.350;19.386;2022-12-16T11:00:39;97.25;;;47.15;;
21458;SDS011;10891;49.350;19.386;2022-12-16T11:03:26;68.50;;;35.38;;
21458;SDS011;10891;49.350;19.386;2022-12-16T11:06:13;64.10;;;33.08;;
21458;SDS011;10891;49.350;19.386;2022-12-16T11:09:10;66.18;;;32.10;;
21458;SDS011;10891;49.350;19.386;2022-12-16T11:12:12;52.17;;;27.05;;
21458;SDS011;10891;49.350;19.386;2022-12-16T11:14:58;56.78;;;31.15;;
21458;SDS011;10891;49.350;19.386;2022-12-16T11:17:50;61.90;;;31.70;;
21458;SDS011;10891;49.350;19.386;2022-12-16T11:20:45;48.90;;;28.77;;
21458;SDS011;10891;49.350;19.386;2022-12-16T11:23:53;56.65;;;28.42;;
21458;SDS011;10891;49.350;19.386;2022-12-16T11:26:52;50.33;;;26.15;;
21458;SDS011;10891;49.350;19.386;2022-12-16T11:29:47;92.03;;;39.45;;
21458;SDS011;10891;49.350;19.386;2022-12-16T11:32:38;42.60;;;23.40;;
21458;SDS011;10891;49.350;19.386;2022-12-16T11:35:25;44.65;;;26.23;;
21458;SDS011;10891;49.350;19.386;2022-12-16T11:38:16;98.40;;;45.83;;
21458;SDS011;10891;49.350;19.386;2022-12-16T11:41:05;253.77;;;84.50;;
21458;SDS011;10891;49.350;19.386;2022-12-16T11:43:51;79.38;;;41.35;;
21458;SDS011;10891;49.350;19.386;2022-12-16T11:46:38;72.40;;;34.33;;
21458;SDS011;10891;49.350;19.386;2022-12-16T11:49:25;153.20;;;65.00;;
21458;SDS011;10891;49.350;19.386;2022-12-16T11:52:12;109.38;;;50.22;;
21458;SDS011;10891;49.350;19.386;2022-12-16T11:55:01;72.03;;;35.83;;
21458;SDS011;10891;49.350;19.386;2022-12-16T11:57:55;91.65;;;42.13;;
21458;SDS011;10891;49.350;19.386;2022-12-16T12:00:48;94.38;;;43.17;;
21458;SDS011;10891;49.350;19.386;2022-12-16T12:03:41;72.10;;;39.33;;
21458;SDS011;10891;49.350;19.386;2022-12-16T12:06:31;67.85;;;35.40;;
21458;SDS011;10891;49.350;19.386;2022-12-16T12:09:24;63.90;;;34.70;;
21458;SDS011;10891;49.350;19.386;2022-12-16T12:12:13;110.38;;;51.30;;
21458;SDS011;10891;49.350;19.386;2022-12-16T12:15:08;105.05;;;50.05;;
21458;SDS011;10891;49.350;19.386;2022-12-16T12:18:03;136.68;;;62.25;;
21458;SDS011;10891;49.350;19.386;2022-12-16T12:20:57;84.93;;;41.35;;
21458;SDS011;10891;49.350;19.386;2022-12-16T12:23:52;115.20;;;61.05;;
21458;SDS011;10891;49.350;19.386;2022-12-16T12:26:42;132.27;;;71.30;;
21458;SDS011;10891;49.350;19.386;2022-12-16T12:29:35;147.30;;;75.75;;
21458;SDS011;10891;49.350;19.386;2022-12-16T12:32:28;179.07;;;91.60;;
21458;SDS011;10891;49.350;19.386;2022-12-16T12:35:26;176.93;;;82.38;;
21458;SDS011;10891;49.350;19.386;2022-12-16T12:38:19;141.23;;;68.35;;
21458;SDS011;10891;49.350;19.386;2022-12-16T12:41:14;137.63;;;67.53;;
21458;SDS011;10891;49.350;19.386;2022-12-16T12:44:02;154.95;;;81.07;;
21458;SDS011;10891;49.350;19.386;2022-12-16T12:46:54;182.65;;;88.55;;
21458;SDS011;10891;49.350;19.386;2022-12-16T12:49:42;168.88;;;80.40;;
21458;SDS011;10891;49.350;19.386;2022-12-16T12:52:36;213.10;;;114.65;;
21458;SDS011;10891;49.350;19.386;2022-12-16T12:55:39;164.55;;;77.20;;
21458;SDS011;10891;49.350;19.386;2022-12-16T12:58:25;117.72;;;59.67;;
21458;SDS011;10891;49.350;19.386;2022-12-16T13:01:11;96.35;;;49.75;;
21458;SDS011;10891;49.350;19.386;2022-12-16T13:04:04;146.63;;;71.25;;
21458;SDS011;10891;49.350;19.386;2022-12-16T13:06:53;136.57;;;67.97;;
21458;SDS011;10891;49.350;19.386;2022-12-16T13:09:38;96.85;;;51.90;;
21458;SDS011;10891;49.350;19.386;2022-12-16T13:12:27;104.05;;;54.20;;
21458;SDS011;10891;49.350;19.386;2022-12-16T13:15:31;132.40;;;63.97;;
21458;SDS011;10891;49.350;19.386;2022-12-16T13:18:22;102.80;;;55.42;;
21458;SDS011;10891;49.350;19.386;2022-12-16T13:24:34;126.55;;;54.78;;
21458;SDS011;10891;49.350;19.386;2022-12-16T13:27:26;135.15;;;60.05;;
21458;SDS011;10891;49.350;19.386;2022-12-16T13:30:19;107.28;;;50.85;;
21458;SDS011;10891;49.350;19.386;2022-12-16T13:33:19;98.90;;;46.03;;
21458;SDS011;10891;49.350;19.386;2022-12-16T13:36:09;117.55;;;64.78;;
21458;SDS011;10891;49.350;19.386;2022-12-16T13:38:55;89.05;;;49.00;;
21458;SDS011;10891;49.350;19.386;2022-12-16T13:41:48;105.18;;;56.63;;
21458;SDS011;10891;49.350;19.386;2022-12-16T13:47:59;94.20;;;51.40;;
21458;SDS011;10891;49.350;19.386;2022-12-16T13:50:47;92.90;;;51.22;;
21458;SDS011;10891;49.350;19.386;2022-12-16T13:53:35;103.53;;;54.70;;
21458;SDS011;10891;49.350;19.386;2022-12-16T13:56:25;75.97;;;37.63;;
21458;SDS011;10891;49.350;19.386;2022-12-16T13:59:15;90.70;;;42.95;;
21458;SDS011;10891;49.350;19.386;2022-12-16T14:02:11;107.93;;;51.58;;
21458;SDS011;10891;49.350;19.386;2022-12-16T14:05:03;85.18;;;45.35;;
21458;SDS011;10891;49.350;19.386;2022-12-16T14:08:00;267.70;;;122.47;;
21458;SDS011;10891;49.350;19.386;2022-12-16T14:10:53;330.20;;;170.88;;
21458;SDS011;10891;49.350;19.386;2022-12-16T14:13:44;279.42;;;143.98;;
21458;SDS011;10891;49.350;19.386;2022-12-16T14:16:37;243.70;;;121.93;;
21458;SDS011;10891;49.350;19.386;2022-12-16T14:19:29;254.38;;;126.60;;
21458;SDS011;10891;49.350;19.386;2022-12-16T14:22:28;354.23;;;158.00;;
21458;SDS011;10891;49.350;19.386;2022-12-16T14:25:24;363.27;;;158.95;;
21458;SDS011;10891;49.350;19.386;2022-12-16T14:28:13;345.50;;;155.65;;
21458;SDS011;10891;49.350;19.386;2022-12-16T14:31:08;400.23;;;184.43;;
21458;SDS011;10891;49.350;19.386;2022-12-16T14:33:56;399.13;;;186.82;;
21458;SDS011;10891;49.350;19.386;2022-12-16T14:36:44;344.63;;;156.40;;
21458;SDS011;10891;49.350;19.386;2022-12-16T14:39:34;390.10;;;175.23;;
21458;SDS011;10891;49.350;19.386;2022-12-16T14:42:22;303.70;;;131.45;;
21458;SDS011;10891;49.350;19.386;2022-12-16T14:45:25;329.20;;;152.80;;
21458;SDS011;10891;49.350;19.386;2022-12-16T14:48:13;305.25;;;134.10;;
21458;SDS011;10891;49.350;19.386;2022-12-16T14:51:19;198.32;;;93.50;;
21458;SDS011;10891;49.350;19.386;2022-12-16T14:54:14;197.90;;;95.28;;
21458;SDS011;10891;49.350;19.386;2022-12-16T14:57:02;400.05;;;174.40;;
21458;SDS011;10891;49.350;19.386;2022-12-16T14:59:46;470.52;;;208.98;;
21458;SDS011;10891;49.350;19.386;2022-12-16T15:02:42;365.88;;;158.10;;
21458;SDS011;10891;49.350;19.386;2022-12-16T15:05:30;343.95;;;148.02;;
21458;SDS011;10891;49.350;19.386;2022-12-16T15:08:16;356.55;;;148.15;;
21458;SDS011;10891;49.350;19.386;2022-12-16T15:11:02;309.02;;;138.48;;
21458;SDS011;10891;49.350;19.386;2022-12-16T15:13:52;306.27;;;131.57;;
21458;SDS011;10891;49.350;19.386;2022-12-16T15:16:40;315.33;;;132.35;;
21458;SDS011;10891;49.350;19.386;2022-12-16T15:19:25;300.55;;;133.95;;
21458;SDS011;10891;49.350;19.386;2022-12-16T15:22:12;257.58;;;120.65;;
21458;SDS011;10891;49.350;19.386;2022-12-16T15:24:58;388.67;;;180.75;;
21458;SDS011;10891;49.350;19.386;2022-12-16T15:27:51;244.93;;;112.30;;
21458;SDS011;10891;49.350;19.386;2022-12-16T15:30:38;179.20;;;82.30;;
21458;SDS011;10891;49.350;19.386;2022-12-16T15:33:25;143.77;;;58.92;;
21458;SDS011;10891;49.350;19.386;2022-12-16T15:36:18;152.02;;;61.83;;
21458;SDS011;10891;49.350;19.386;2022-12-16T15:39:09;308.00;;;141.82;;
21458;SDS011;10891;49.350;19.386;2022-12-16T15:42:04;238.10;;;119.20;;
21458;SDS011;10891;49.350;19.386;2022-12-16T15:45:00;125.72;;;53.60;;